createdAt,value
2018-04-18T00:00:40.143Z,20.00
2018-04-18T00:01:40.214Z,18.30
2018-04-18T00:02:40.179Z,18.40
2018-04-18T00:03:40.195Z,21.10
2018-04-18T00:04:40.188Z,19.00
2018-04-18T00:05:40.233Z,21.60
2018-04-18T00:06:40.275Z,20.10
2018-04-18T00:07:40.223Z,19.90
2018-04-18T00:08:40.250Z,22.00
2018-04-18T00:09:40.262Z,22.30
2018-04-18T00:10:40.267Z,19.10
2018-04-18T00:11:40.294Z,17.00
2018-04-18T00:12:40.301Z,19.10
2018-04-18T00:13:40.292Z,18.90
2018-04-18T00:14:40.320Z,19.00
2018-04-18T00:15:40.363Z,22.30
2018-04-18T00:16:40.330Z,21.50
2018-04-18T00:17:40.357Z,21.50
2018-04-18T00:18:40.365Z,21.20
2018-04-18T00:19:40.368Z,18.60
2018-04-18T00:20:40.425Z,18.00
2018-04-18T00:21:40.391Z,17.40
2018-04-18T00:22:40.411Z,18.20
2018-04-18T00:23:40.431Z,18.50
2018-04-18T00:24:40.428Z,17.20
2018-04-18T00:25:40.465Z,21.40
2018-04-18T00:26:40.457Z,41.30
2018-04-18T00:27:40.480Z,50.90
2018-04-18T00:28:40.474Z,21.50
2018-04-18T00:29:40.490Z,21.80
2018-04-18T00:30:40.528Z,35.20
2018-04-18T00:31:40.512Z,31.80
2018-04-18T00:32:40.508Z,24.90
2018-04-18T00:33:40.523Z,25.10
2018-04-18T00:35:08.476Z,20.50
2018-04-18T00:35:40.591Z,21.00
2018-04-18T00:36:40.565Z,17.90
2018-04-18T00:37:40.569Z,20.40
2018-04-18T00:38:40.587Z,18.70
2018-04-18T00:39:40.603Z,18.90
2018-04-18T00:40:40.661Z,19.20
2018-04-18T00:41:40.626Z,19.90
2018-04-18T00:42:40.632Z,19.90
2018-04-18T00:43:40.635Z,19.40
2018-04-18T00:44:40.660Z,20.00
2018-04-18T00:45:40.698Z,18.50
2018-04-18T00:46:40.676Z,18.40
2018-04-18T00:47:40.695Z,15.00
2018-04-18T00:48:40.702Z,16.50
2018-04-18T00:49:40.734Z,18.00
2018-04-18T00:50:40.752Z,19.90
2018-04-18T00:51:40.766Z,17.50
2018-04-18T00:52:40.749Z,19.70
2018-04-18T00:53:40.763Z,19.90
2018-04-18T00:54:40.760Z,17.70
2018-04-18T00:55:40.778Z,16.50
2018-04-18T00:56:40.815Z,17.60
2018-04-18T00:57:40.811Z,16.00
2018-04-18T00:58:40.816Z,14.20
2018-04-18T00:59:40.838Z,15.70
2018-04-18T01:00:40.858Z,14.90
2018-04-18T01:01:40.866Z,16.00
2018-04-18T01:02:40.849Z,15.50
2018-04-18T01:03:40.890Z,14.10
2018-04-18T01:04:40.936Z,17.20
2018-04-18T01:05:40.887Z,19.30
2018-04-18T01:06:40.937Z,21.20
2018-04-18T01:07:40.926Z,17.70
2018-04-18T01:08:40.926Z,17.20
2018-04-18T01:09:40.981Z,19.30
2018-04-18T01:10:40.948Z,16.00
2018-04-18T01:11:40.961Z,16.90
2018-04-18T01:12:40.966Z,16.00
2018-04-18T01:13:40.990Z,15.70
2018-04-18T01:14:41.036Z,18.90
2018-04-18T01:15:40.997Z,26.00
2018-04-18T01:16:41.020Z,25.50
2018-04-18T01:17:41.014Z,26.60
2018-04-18T01:18:41.041Z,31.10
2018-04-18T01:19:41.079Z,28.60
2018-04-18T01:20:41.069Z,21.20
2018-04-18T01:21:41.070Z,25.60
2018-04-18T01:22:41.093Z,21.20
2018-04-18T01:23:41.089Z,20.80
2018-04-18T01:24:41.133Z,20.10
2018-04-18T01:25:41.105Z,20.90
2018-04-18T01:26:41.131Z,21.60
2018-04-18T01:27:41.129Z,24.00
2018-04-18T01:28:41.140Z,20.70
2018-04-18T01:29:41.196Z,19.10
2018-04-18T01:30:41.165Z,18.10
2018-04-18T01:31:41.195Z,18.90
2018-04-18T01:32:41.203Z,20.80
2018-04-18T01:33:41.217Z,19.70
2018-04-18T01:34:41.261Z,16.90
2018-04-18T01:35:41.226Z,20.10
2018-04-18T01:36:41.226Z,19.10
2018-04-18T01:37:41.238Z,17.80
2018-04-18T01:38:41.265Z,18.20
2018-04-18T01:39:41.304Z,18.80
2018-04-18T01:40:41.336Z,19.50
2018-04-18T01:41:41.308Z,21.80
2018-04-18T01:42:41.309Z,20.90
2018-04-18T01:43:41.325Z,20.80
2018-04-18T01:44:41.342Z,17.70
2018-04-18T01:45:41.352Z,15.30
2018-04-18T01:46:41.346Z,15.60
2018-04-18T01:47:41.381Z,15.90
2018-04-18T01:48:41.371Z,16.90
2018-04-18T01:49:41.377Z,15.80
2018-04-18T01:50:41.383Z,17.00
2018-04-18T01:51:41.407Z,16.60
2018-04-18T01:52:41.453Z,19.40
2018-04-18T01:53:41.415Z,17.00
2018-04-18T01:54:41.440Z,19.20
2018-04-18T01:55:41.453Z,18.10
2018-04-18T01:56:41.462Z,16.10
2018-04-18T01:57:41.502Z,17.60
2018-04-18T01:58:41.481Z,17.00
2018-04-18T01:59:41.487Z,19.90
2018-04-18T02:00:41.494Z,17.70
2018-04-18T02:01:41.503Z,17.50
2018-04-18T02:02:41.572Z,17.20
2018-04-18T02:03:41.526Z,18.00
2018-04-18T02:04:41.572Z,19.00
2018-04-18T02:05:41.546Z,16.30
2018-04-18T02:06:41.577Z,17.10
2018-04-18T02:07:41.580Z,17.90
2018-04-18T02:08:41.621Z,17.80
2018-04-18T02:09:41.638Z,17.70
2018-04-18T02:10:41.603Z,19.40
2018-04-18T02:11:41.627Z,18.80
2018-04-18T02:12:41.636Z,19.90
2018-04-18T02:13:41.655Z,17.80
2018-04-18T02:14:41.700Z,17.40
2018-04-18T02:15:41.666Z,18.20
2018-04-18T02:16:41.669Z,18.80
2018-04-18T02:17:41.708Z,19.80
2018-04-18T02:18:41.694Z,23.10
2018-04-18T02:19:41.751Z,20.50
2018-04-18T02:20:41.710Z,18.90
2018-04-18T02:21:41.728Z,18.50
2018-04-18T02:22:41.729Z,20.20
2018-04-18T02:23:41.740Z,21.40
2018-04-18T02:24:41.832Z,18.50
2018-04-18T02:25:41.783Z,19.50
2018-04-18T02:26:41.779Z,20.00
2018-04-18T02:27:41.782Z,20.10
2018-04-18T02:28:41.793Z,21.30
2018-04-18T02:29:41.831Z,19.30
2018-04-18T02:30:41.818Z,18.10
2018-04-18T02:31:41.872Z,19.40
2018-04-18T02:32:41.833Z,18.90
2018-04-18T02:33:41.846Z,18.30
2018-04-18T02:34:41.859Z,18.50
2018-04-18T02:35:41.915Z,18.00
2018-04-18T02:36:41.920Z,17.90
2018-04-18T02:37:41.907Z,18.70
2018-04-18T02:38:41.915Z,18.90
2018-04-18T02:39:41.921Z,18.30
2018-04-18T02:40:41.971Z,17.40
2018-04-18T02:41:41.946Z,18.10
2018-04-18T02:42:41.971Z,23.00
2018-04-18T02:43:41.967Z,20.40
2018-04-18T02:44:41.970Z,18.70
2018-04-18T02:45:42.016Z,20.20
2018-04-18T02:46:41.988Z,21.20
2018-04-18T02:47:42.004Z,19.60
2018-04-18T02:48:42.024Z,19.20
2018-04-18T02:49:42.031Z,19.10
2018-04-18T02:50:42.079Z,18.10
2018-04-18T02:51:42.065Z,19.10
2018-04-18T02:52:42.057Z,21.40
2018-04-18T02:53:42.068Z,22.50
2018-04-18T02:54:42.093Z,20.00
2018-04-18T02:55:42.147Z,18.40
2018-04-18T02:56:42.139Z,19.50
2018-04-18T02:57:42.166Z,19.50
2018-04-18T02:58:42.117Z,19.30
2018-04-18T02:59:42.138Z,19.40
2018-04-18T03:00:42.141Z,21.50
2018-04-18T03:01:42.204Z,22.50
2018-04-18T03:02:42.167Z,19.90
2018-04-18T03:03:42.176Z,21.30
2018-04-18T03:04:42.197Z,20.30
2018-04-18T03:05:42.198Z,19.60
2018-04-18T03:06:42.261Z,19.80
2018-04-18T03:07:42.212Z,19.40
2018-04-18T03:08:42.244Z,22.00
2018-04-18T03:09:42.244Z,20.90
2018-04-18T03:10:42.252Z,20.80
2018-04-18T03:11:42.294Z,22.30
2018-04-18T03:12:42.274Z,20.90
2018-04-18T03:13:42.273Z,21.10
2018-04-18T03:14:42.285Z,20.90
2018-04-18T03:15:42.321Z,20.50
2018-04-18T03:16:42.352Z,21.10
2018-04-18T03:17:42.327Z,21.40
2018-04-18T03:18:42.364Z,22.20
2018-04-18T03:19:42.368Z,23.30
2018-04-18T03:20:42.392Z,23.90
2018-04-18T03:21:42.373Z,22.40
2018-04-18T03:22:42.376Z,23.20
2018-04-18T03:23:42.388Z,21.90
2018-04-18T03:24:42.403Z,25.30
2018-04-18T03:25:42.449Z,24.20
2018-04-18T03:26:42.473Z,24.30
2018-04-18T03:27:42.439Z,22.70
2018-04-18T03:28:42.437Z,23.00
2018-04-18T03:29:42.445Z,23.70
2018-04-18T03:30:42.500Z,25.90
2018-04-18T03:31:42.474Z,23.50
2018-04-18T03:32:42.536Z,23.50
2018-04-18T03:33:42.492Z,23.70
2018-04-18T03:34:42.499Z,23.70
2018-04-18T03:35:42.530Z,24.80
2018-04-18T03:36:42.532Z,27.70
2018-04-18T03:37:42.585Z,32.50
2018-04-18T03:38:42.556Z,31.30
2018-04-18T03:39:42.566Z,29.90
2018-04-18T03:40:42.576Z,24.70
2018-04-18T03:41:42.603Z,25.50
2018-04-18T03:42:42.624Z,25.60
2018-04-18T03:43:42.612Z,24.80
2018-04-18T03:44:42.621Z,25.50
2018-04-18T03:45:42.628Z,31.20
2018-04-18T03:46:42.681Z,32.80
2018-04-18T03:47:42.650Z,36.00
2018-04-18T03:48:42.735Z,33.30
2018-04-18T03:49:42.667Z,29.60
2018-04-18T03:50:42.679Z,33.40
2018-04-18T03:51:42.689Z,29.80
2018-04-18T03:52:42.703Z,29.90
2018-04-18T03:53:42.734Z,26.60
2018-04-18T03:54:42.731Z,29.30
2018-04-18T03:55:42.749Z,30.00
2018-04-18T03:56:42.752Z,35.40
2018-04-18T03:57:42.763Z,32.30
2018-04-18T03:58:42.790Z,31.70
2018-04-18T03:59:42.769Z,29.30
2018-04-18T04:00:42.780Z,27.30
2018-04-18T04:01:42.789Z,28.70
2018-04-18T04:02:42.810Z,27.70
2018-04-18T04:03:42.876Z,28.10
2018-04-18T04:04:42.821Z,28.20
2018-04-18T04:05:42.837Z,29.00
2018-04-18T04:06:42.852Z,37.40
2018-04-18T04:07:42.867Z,33.00
2018-04-18T04:08:42.890Z,28.20
2018-04-18T04:09:42.910Z,31.00
2018-04-18T04:10:42.898Z,29.60
2018-04-18T04:11:42.903Z,29.60
2018-04-18T04:12:42.929Z,29.90
2018-04-18T04:13:42.916Z,31.70
2018-04-18T04:14:42.971Z,28.10
2018-04-18T04:15:42.932Z,27.70
2018-04-18T04:16:42.988Z,31.00
2018-04-18T04:17:42.964Z,29.30
2018-04-18T04:18:42.967Z,31.60
2018-04-18T04:19:42.988Z,34.20
2018-04-18T04:20:43.034Z,30.90
2018-04-18T04:21:43.021Z,30.20
2018-04-18T04:22:43.024Z,29.80
2018-04-18T04:23:43.032Z,31.70
2018-04-18T04:24:43.030Z,26.20
2018-04-18T04:25:43.083Z,26.30
2018-04-18T04:26:43.147Z,26.00
2018-04-18T04:27:43.173Z,27.20
2018-04-18T04:28:43.090Z,28.00
2018-04-18T04:29:43.127Z,28.30
2018-04-18T04:30:43.120Z,27.10
2018-04-18T04:31:43.148Z,25.30
2018-04-18T04:32:43.134Z,27.70
2018-04-18T04:33:43.140Z,25.80
2018-04-18T04:34:43.188Z,26.50
2018-04-18T04:35:43.147Z,25.90
2018-04-18T04:36:43.175Z,25.50
2018-04-18T04:37:43.163Z,26.60
2018-04-18T04:38:43.192Z,25.70
2018-04-18T04:39:43.218Z,25.40
2018-04-18T04:40:43.267Z,24.40
2018-04-18T04:41:43.209Z,25.60
2018-04-18T04:42:43.252Z,28.00
2018-04-18T04:43:43.235Z,25.10
2018-04-18T04:44:43.275Z,28.00
2018-04-18T04:45:43.294Z,25.80
2018-04-18T04:46:43.370Z,26.70
2018-04-18T04:47:43.292Z,27.20
2018-04-18T04:48:43.294Z,26.60
2018-04-18T04:49:43.294Z,25.90
2018-04-18T04:50:43.343Z,26.00
2018-04-18T04:51:43.331Z,26.40
2018-04-18T04:52:43.452Z,26.50
2018-04-18T04:53:43.350Z,26.10
2018-04-18T04:54:43.362Z,27.80
2018-04-18T04:55:43.373Z,27.30
2018-04-18T04:56:43.421Z,30.60
2018-04-18T04:57:43.407Z,39.20
2018-04-18T04:58:43.391Z,33.10
2018-04-18T04:59:43.414Z,28.20
2018-04-18T05:00:43.415Z,27.30
2018-04-18T05:01:43.483Z,28.60
2018-04-18T05:02:43.448Z,28.10
2018-04-18T05:03:43.466Z,27.70
2018-04-18T05:04:43.472Z,27.90
2018-04-18T05:05:43.470Z,29.00
2018-04-18T05:06:43.531Z,29.40
2018-04-18T05:07:43.511Z,30.00
2018-04-18T05:08:43.530Z,28.90
2018-04-18T05:09:43.517Z,30.20
2018-04-18T05:10:43.530Z,29.00
2018-04-18T05:11:43.586Z,29.30
2018-04-18T05:12:43.592Z,29.40
2018-04-18T05:13:43.559Z,29.90
2018-04-18T05:14:43.574Z,29.60
2018-04-18T05:15:43.594Z,27.20
2018-04-18T05:16:43.619Z,27.70
2018-04-18T05:17:43.617Z,27.60
2018-04-18T05:18:43.629Z,26.30
2018-04-18T05:19:43.636Z,28.40
2018-04-18T05:20:43.643Z,28.00
2018-04-18T05:21:43.700Z,26.00
2018-04-18T05:22:43.678Z,27.10
2018-04-18T05:23:43.691Z,28.20
2018-04-18T05:24:43.703Z,26.00
2018-04-18T05:25:43.700Z,25.40
2018-04-18T05:26:43.836Z,25.80
2018-04-18T05:27:43.728Z,25.40
2018-04-18T05:28:43.740Z,24.90
2018-04-18T05:29:43.763Z,24.90
2018-04-18T05:30:43.796Z,25.80
2018-04-18T05:31:43.784Z,26.00
2018-04-18T05:32:43.820Z,24.50
2018-04-18T05:33:43.845Z,26.70
2018-04-18T05:34:43.834Z,26.50
2018-04-18T05:35:43.839Z,26.30
2018-04-18T05:36:43.852Z,25.10
2018-04-18T05:37:43.862Z,25.70
2018-04-18T05:38:43.925Z,26.30
2018-04-18T05:39:43.894Z,27.70
2018-04-18T05:40:43.899Z,26.40
2018-04-18T05:41:43.914Z,26.80
2018-04-18T05:42:43.925Z,26.80
2018-04-18T05:43:43.966Z,27.60
2018-04-18T05:44:43.964Z,27.40
2018-04-18T05:45:43.976Z,26.40
2018-04-18T05:46:44.019Z,27.60
2018-04-18T05:47:43.993Z,27.60
2018-04-18T05:48:43.994Z,26.40
2018-04-18T05:49:44.028Z,27.90
2018-04-18T05:50:44.022Z,27.20
2018-04-18T05:51:44.071Z,29.00
2018-04-18T05:52:44.067Z,28.50
2018-04-18T05:53:44.067Z,27.70
2018-04-18T05:54:44.089Z,27.10
2018-04-18T05:55:44.091Z,29.20
2018-04-18T05:56:44.154Z,27.60
2018-04-18T05:57:44.137Z,27.80
2018-04-18T05:58:44.139Z,28.30
2018-04-18T05:59:44.145Z,28.60
2018-04-18T06:00:44.179Z,28.60
2018-04-18T06:01:44.218Z,29.00
2018-04-18T06:02:44.189Z,29.20
2018-04-18T06:03:44.193Z,29.20
2018-04-18T06:04:44.240Z,29.30
2018-04-18T06:05:44.229Z,29.30
2018-04-18T06:06:44.297Z,30.20
2018-04-18T06:07:44.256Z,29.50
2018-04-18T06:08:44.271Z,29.20
2018-04-18T06:09:44.273Z,30.70
2018-04-18T06:10:44.289Z,31.30
2018-04-18T06:11:44.338Z,29.30
2018-04-18T06:12:44.317Z,30.40
2018-04-18T06:13:44.327Z,29.90
2018-04-18T06:14:44.341Z,30.50
2018-04-18T06:15:44.397Z,30.40
2018-04-18T06:16:44.365Z,30.10
2018-04-18T06:17:44.385Z,30.50
2018-04-18T06:18:44.408Z,31.50
2018-04-18T06:19:44.397Z,31.00
2018-04-18T06:20:44.444Z,30.20
2018-04-18T06:21:44.424Z,32.60
2018-04-18T06:22:44.483Z,34.40
2018-04-18T06:23:44.504Z,32.70
2018-04-18T06:24:44.473Z,34.20
2018-04-18T06:25:44.477Z,33.10
2018-04-18T06:26:44.519Z,32.40
2018-04-18T06:27:44.542Z,31.50
2018-04-18T06:28:44.508Z,32.20
2018-04-18T06:29:44.541Z,33.00
2018-04-18T06:30:44.548Z,31.80
2018-04-18T06:31:44.545Z,31.70
2018-04-18T06:32:44.595Z,31.60
2018-04-18T06:33:44.605Z,32.20
2018-04-18T06:34:44.587Z,30.70
2018-04-18T06:35:44.597Z,33.80
2018-04-18T06:36:44.615Z,30.90
2018-04-18T06:37:44.665Z,31.90
2018-04-18T06:38:44.644Z,32.30
2018-04-18T06:39:44.647Z,32.70
2018-04-18T06:40:44.671Z,32.00
2018-04-18T06:41:44.694Z,30.80
2018-04-18T06:42:44.730Z,31.90
2018-04-18T06:43:44.703Z,31.80
2018-04-18T06:44:44.735Z,31.80
2018-04-18T06:45:44.716Z,34.60
2018-04-18T06:46:44.741Z,31.70
2018-04-18T06:47:44.791Z,31.50
2018-04-18T06:48:44.776Z,32.90
2018-04-18T06:49:44.788Z,32.00
2018-04-18T06:50:44.789Z,32.10
2018-04-18T06:51:44.810Z,32.20
2018-04-18T06:52:44.846Z,32.00
2018-04-18T06:53:44.830Z,31.80
2018-04-18T06:54:44.869Z,33.20
2018-04-18T06:55:44.844Z,33.30
2018-04-18T06:56:44.868Z,36.90
2018-04-18T06:57:44.912Z,36.70
2018-04-18T06:58:44.899Z,35.00
2018-04-18T06:59:44.919Z,34.00
2018-04-18T07:00:44.947Z,34.60
2018-04-18T07:01:44.933Z,34.10
2018-04-18T07:02:44.979Z,34.70
2018-04-18T07:03:44.956Z,34.70
2018-04-18T07:04:44.970Z,34.50
2018-04-18T07:05:44.980Z,34.30
2018-04-18T07:06:44.993Z,34.10
2018-04-18T07:07:45.028Z,33.70
2018-04-18T07:08:45.060Z,32.30
2018-04-18T07:09:45.027Z,32.70
2018-04-18T07:10:45.049Z,34.00
2018-04-18T07:11:45.068Z,33.60
2018-04-18T07:12:45.061Z,34.40
2018-04-18T07:13:45.115Z,33.90
2018-04-18T07:14:45.099Z,34.10
2018-04-18T07:15:45.107Z,33.40
2018-04-18T07:16:45.123Z,35.10
2018-04-18T07:17:45.155Z,33.50
2018-04-18T07:18:45.169Z,33.70
2018-04-18T07:19:45.165Z,34.10
2018-04-18T07:20:45.160Z,35.00
2018-04-18T07:21:45.202Z,33.40
2018-04-18T07:22:45.248Z,36.20
2018-04-18T07:23:45.222Z,32.20
2018-04-18T07:24:45.222Z,32.40
2018-04-18T07:25:45.224Z,32.20
2018-04-18T07:26:45.251Z,31.00
2018-04-18T07:27:45.309Z,32.40
2018-04-18T07:28:45.277Z,32.20
2018-04-18T07:29:45.287Z,32.20
2018-04-18T07:30:45.298Z,32.00
2018-04-18T07:31:45.314Z,32.00
2018-04-18T07:32:45.351Z,31.20
2018-04-18T07:33:45.324Z,32.00
2018-04-18T07:34:45.337Z,31.90
2018-04-18T07:35:45.357Z,32.20
2018-04-18T07:36:45.394Z,32.80
2018-04-18T07:37:45.414Z,33.10
2018-04-18T07:38:45.389Z,34.90
2018-04-18T07:39:45.408Z,32.90
2018-04-18T07:40:45.423Z,32.20
2018-04-18T07:41:45.432Z,33.10
2018-04-18T07:42:45.519Z,32.10
2018-04-18T07:43:45.518Z,32.20
2018-04-18T07:44:45.464Z,32.50
2018-04-18T07:45:45.499Z,32.20
2018-04-18T07:46:45.507Z,32.40
2018-04-18T07:47:45.541Z,35.40
2018-04-18T07:48:45.527Z,33.40
2018-04-18T07:49:45.571Z,30.50
2018-04-18T07:50:45.561Z,31.70
2018-04-18T07:51:45.553Z,31.30
2018-04-18T07:52:45.577Z,30.60
2018-04-18T07:53:45.580Z,30.20
2018-04-18T07:54:45.663Z,30.40
2018-04-18T07:55:45.607Z,30.70
2018-04-18T07:56:45.619Z,30.20
2018-04-18T07:57:45.642Z,30.00
2018-04-18T07:58:45.667Z,30.60
2018-04-18T07:59:45.696Z,29.60
2018-04-18T08:00:45.689Z,29.50
2018-04-18T08:01:45.693Z,29.90
2018-04-18T08:02:45.715Z,29.90
2018-04-18T08:03:45.717Z,30.00
2018-04-18T08:04:45.765Z,29.40
2018-04-18T08:05:45.845Z,28.80
2018-04-18T08:06:45.755Z,38.50
2018-04-18T08:07:45.758Z,35.40
2018-04-18T08:08:45.775Z,31.80
2018-04-18T08:09:45.827Z,30.30
2018-04-18T08:10:45.848Z,30.50
2018-04-18T08:11:45.860Z,28.00
2018-04-18T08:12:45.845Z,28.40
2018-04-18T08:13:45.842Z,27.30
2018-04-18T08:14:45.865Z,27.70
2018-04-18T08:15:45.896Z,26.30
2018-04-18T08:16:45.894Z,25.30
2018-04-18T08:17:45.898Z,25.50
2018-04-18T08:18:45.951Z,26.20
2018-04-18T08:19:45.919Z,39.10
2018-04-18T08:20:45.973Z,27.60
2018-04-18T08:21:46.024Z,23.30
2018-04-18T08:22:45.958Z,25.70
2018-04-18T08:23:45.984Z,24.40
2018-04-18T08:24:46.006Z,22.20
2018-04-18T08:25:46.040Z,21.20
2018-04-18T08:26:46.009Z,20.30
2018-04-18T08:27:46.018Z,20.20
2018-04-18T08:28:46.040Z,21.70
2018-04-18T08:29:46.052Z,20.50
2018-04-18T08:30:46.105Z,19.00
2018-04-18T08:31:46.101Z,20.80
2018-04-18T08:32:46.105Z,18.30
2018-04-18T08:33:46.122Z,18.00
2018-04-18T08:34:46.121Z,18.30
2018-04-18T08:35:46.183Z,18.50
2018-04-18T08:36:46.138Z,17.70
2018-04-18T08:37:46.161Z,17.30
2018-04-18T08:38:46.172Z,17.00
2018-04-18T08:39:46.178Z,17.60
2018-04-18T08:40:46.248Z,17.70
2018-04-18T08:41:46.222Z,20.30
2018-04-18T08:42:46.222Z,21.50
2018-04-18T08:43:46.230Z,19.90
2018-04-18T08:44:46.258Z,20.00
2018-04-18T08:45:46.302Z,19.20
2018-04-18T08:46:46.284Z,18.60
2018-04-18T08:47:46.310Z,20.20
2018-04-18T08:48:46.318Z,18.40
2018-04-18T08:49:46.311Z,18.80
2018-04-18T08:50:46.376Z,23.80
2018-04-18T08:51:46.408Z,22.80
2018-04-18T08:52:46.366Z,24.80
2018-04-18T08:53:46.380Z,21.60
2018-04-18T08:54:46.399Z,21.60
2018-04-18T08:55:46.447Z,17.90
2018-04-18T08:56:46.453Z,18.60
2018-04-18T08:57:46.440Z,17.50
2018-04-18T08:58:46.442Z,18.10
2018-04-18T08:59:46.463Z,18.60
2018-04-18T09:00:46.480Z,20.70
2018-04-18T09:01:46.541Z,18.30
2018-04-18T09:02:46.501Z,19.40
2018-04-18T09:03:46.507Z,20.10
2018-04-18T09:04:46.520Z,19.00
2018-04-18T09:05:46.528Z,19.80
2018-04-18T09:06:46.574Z,20.50
2018-04-18T09:07:46.564Z,19.80
2018-04-18T09:08:46.615Z,21.80
2018-04-18T09:09:46.595Z,20.80
2018-04-18T09:10:46.605Z,22.50
2018-04-18T09:11:46.635Z,20.80
2018-04-18T09:12:46.619Z,21.10
2018-04-18T09:13:46.691Z,20.10
2018-04-18T09:14:46.692Z,20.30
2018-04-18T09:15:46.712Z,20.90
2018-04-18T09:16:46.674Z,20.90
2018-04-18T09:17:46.706Z,22.70
2018-04-18T09:18:46.770Z,21.80
2018-04-18T09:19:46.715Z,21.80
2018-04-18T09:20:46.748Z,21.20
2018-04-18T09:21:46.757Z,23.80
2018-04-18T09:22:46.764Z,21.80
2018-04-18T09:23:46.822Z,21.10
2018-04-18T09:24:46.835Z,20.90
2018-04-18T09:25:46.808Z,20.70
2018-04-18T09:26:46.827Z,20.20
2018-04-18T09:27:46.823Z,21.70
2018-04-18T09:28:46.917Z,20.50
2018-04-18T09:29:46.847Z,22.20
2018-04-18T09:30:46.872Z,21.20
2018-04-18T09:31:46.896Z,21.40
2018-04-18T09:32:46.910Z,21.00
2018-04-18T09:33:46.964Z,20.30
2018-04-18T09:34:47.069Z,22.90
2018-04-18T09:35:46.941Z,22.10
2018-04-18T09:36:46.948Z,21.90
2018-04-18T09:37:46.974Z,21.30
2018-04-18T09:38:47.007Z,20.50
2018-04-18T09:39:47.000Z,20.30
2018-04-18T09:40:47.057Z,20.70
2018-04-18T09:41:47.016Z,20.20
2018-04-18T09:42:47.037Z,20.20
2018-04-18T09:43:47.072Z,20.80
2018-04-18T09:44:47.071Z,21.10
2018-04-18T09:45:47.094Z,20.90
2018-04-18T09:46:47.108Z,20.10
2018-04-18T09:47:47.110Z,20.60
2018-04-18T09:48:47.125Z,19.30
2018-04-18T09:49:47.180Z,20.40
2018-04-18T09:50:47.168Z,20.30
2018-04-18T09:51:47.157Z,19.70
2018-04-18T09:52:47.180Z,19.40
2018-04-18T09:53:47.203Z,20.50
2018-04-18T09:54:47.228Z,19.00
2018-04-18T09:55:47.227Z,19.20
2018-04-18T09:56:47.257Z,19.50
2018-04-18T09:57:47.238Z,19.40
2018-04-18T09:58:47.283Z,19.90
2018-04-18T09:59:47.278Z,19.70
2018-04-18T10:00:47.309Z,20.20
2018-04-18T10:01:47.337Z,19.80
2018-04-18T10:02:47.320Z,18.50
2018-04-18T10:03:47.334Z,18.40
2018-04-18T10:04:47.335Z,18.10
2018-04-18T10:05:47.402Z,18.10
2018-04-18T10:06:47.363Z,18.10
2018-04-18T10:07:47.408Z,18.60
2018-04-18T10:08:47.407Z,20.40
2018-04-18T10:09:47.435Z,19.00
2018-04-18T10:10:47.469Z,16.70
2018-04-18T10:11:47.433Z,17.80
2018-04-18T10:12:47.462Z,16.80
2018-04-18T10:13:47.462Z,16.90
2018-04-18T10:14:47.557Z,18.00
2018-04-18T10:15:47.531Z,17.30
2018-04-18T10:16:47.523Z,20.80
2018-04-18T10:17:47.526Z,18.00
2018-04-18T10:18:47.549Z,18.50
2018-04-18T10:19:47.564Z,16.40
2018-04-18T10:20:47.608Z,16.60
2018-04-18T10:21:47.571Z,16.50
2018-04-18T10:22:47.615Z,16.10
2018-04-18T10:23:47.615Z,15.60
2018-04-18T10:24:47.646Z,16.20
2018-04-18T10:25:47.672Z,15.20
2018-04-18T10:26:47.656Z,15.10
2018-04-18T10:27:47.660Z,15.50
2018-04-18T10:28:47.689Z,16.50
2018-04-18T10:29:47.724Z,16.00
2018-04-18T10:30:47.730Z,17.00
2018-04-18T10:31:47.722Z,17.10
2018-04-18T10:32:47.739Z,15.50
2018-04-18T10:33:47.787Z,15.90
2018-04-18T10:34:47.777Z,15.50
2018-04-18T10:35:47.795Z,15.40
2018-04-18T10:36:47.793Z,14.60
2018-04-18T10:37:47.808Z,13.70
2018-04-18T10:38:47.835Z,15.10
2018-04-18T10:39:47.881Z,13.30
2018-04-18T10:40:47.846Z,15.90
2018-04-18T10:41:47.856Z,14.00
2018-04-18T10:42:47.896Z,15.00
2018-04-18T10:43:47.915Z,15.60
2018-04-18T10:44:47.905Z,16.10
2018-04-18T10:45:47.920Z,15.30
2018-04-18T10:46:47.950Z,15.20
2018-04-18T10:47:47.951Z,14.70
2018-04-18T10:48:48.014Z,16.90
2018-04-18T10:49:47.975Z,14.50
2018-04-18T10:50:48.005Z,14.70
2018-04-18T10:51:48.011Z,14.70
2018-04-18T10:52:48.043Z,15.40
2018-04-18T10:53:48.073Z,15.90
2018-04-18T10:54:48.055Z,15.60
2018-04-18T10:55:48.072Z,15.50
2018-04-18T10:56:48.080Z,14.60
2018-04-18T10:57:48.128Z,20.10
2018-04-18T10:58:48.141Z,15.70
2018-04-18T10:59:48.124Z,14.50
2018-04-18T11:00:48.131Z,14.60
2018-04-18T11:01:48.159Z,14.00
2018-04-18T11:02:48.167Z,17.20
2018-04-18T11:03:48.225Z,15.00
2018-04-18T11:04:48.200Z,14.90
2018-04-18T11:05:48.200Z,15.30
2018-04-18T11:06:48.236Z,15.70
2018-04-18T11:07:48.227Z,14.60
2018-04-18T11:08:48.286Z,14.30
2018-04-18T11:09:48.274Z,14.00
2018-04-18T11:10:48.311Z,14.40
2018-04-18T11:11:48.321Z,15.80
2018-04-18T11:12:48.347Z,16.50
2018-04-18T11:13:48.317Z,14.60
2018-04-18T11:14:48.329Z,15.20
2018-04-18T11:15:48.390Z,15.00
2018-04-18T11:16:48.377Z,14.50
2018-04-18T11:17:48.370Z,15.00
2018-04-18T11:18:48.396Z,14.90
2018-04-18T11:19:48.420Z,14.30
2018-04-18T11:20:48.482Z,17.20
2018-04-18T11:21:48.462Z,14.90
2018-04-18T11:22:48.460Z,16.00
2018-04-18T11:23:48.492Z,17.10
2018-04-18T11:24:48.507Z,14.80
2018-04-18T11:25:48.521Z,15.50
2018-04-18T11:26:48.545Z,15.40
2018-04-18T11:27:48.575Z,14.60
2018-04-18T11:28:48.529Z,14.20
2018-04-18T11:29:48.562Z,14.00
2018-04-18T11:30:48.575Z,14.60
2018-04-18T11:31:48.586Z,14.10
2018-04-18T11:32:48.630Z,13.50
2018-04-18T11:33:48.616Z,15.90
2018-04-18T11:34:48.616Z,15.00
2018-04-18T11:35:48.660Z,13.20
2018-04-18T11:36:48.701Z,14.00
2018-04-18T11:37:48.658Z,14.90
2018-04-18T11:38:48.711Z,13.60
2018-04-18T11:39:48.772Z,13.90
2018-04-18T11:40:48.717Z,13.70
2018-04-18T11:41:48.868Z,14.70
2018-04-18T11:42:48.760Z,15.10
2018-04-18T11:43:48.821Z,16.40
2018-04-18T11:44:48.760Z,14.40
2018-04-18T11:45:48.778Z,16.40
2018-04-18T11:46:48.796Z,14.20
2018-04-18T11:47:48.828Z,14.50
2018-04-18T11:48:48.883Z,18.80
2018-04-18T11:49:48.859Z,14.90
2018-04-18T11:50:48.857Z,15.30
2018-04-18T11:51:48.882Z,14.50
2018-04-18T11:52:48.879Z,13.20
2018-04-18T11:53:48.930Z,12.90
2018-04-18T11:54:48.929Z,13.30
2018-04-18T11:55:48.923Z,14.50
2018-04-18T11:56:48.940Z,14.20
2018-04-18T11:57:48.992Z,14.70
2018-04-18T11:58:49.036Z,14.30
2018-04-18T11:59:49.013Z,13.50
2018-04-18T12:00:48.996Z,13.30
2018-04-18T12:01:49.027Z,13.80
2018-04-18T12:02:49.059Z,15.50
2018-04-18T12:03:49.111Z,15.90
2018-04-18T12:04:49.064Z,13.70
2018-04-18T12:05:49.080Z,13.10
2018-04-18T12:06:49.118Z,13.80
2018-04-18T12:07:49.100Z,13.40
2018-04-18T12:08:49.180Z,13.20
2018-04-18T12:09:49.150Z,14.20
2018-04-18T12:10:49.168Z,13.80
2018-04-18T12:11:49.212Z,13.40
2018-04-18T12:12:49.228Z,12.70
2018-04-18T12:13:49.199Z,12.20
2018-04-18T12:14:49.213Z,12.20
2018-04-18T12:15:49.218Z,13.80
2018-04-18T12:16:49.262Z,12.20
2018-04-18T12:17:49.301Z,12.20
2018-04-18T12:18:49.274Z,13.60
2018-04-18T12:19:49.287Z,13.50
2018-04-18T12:20:49.334Z,14.60
2018-04-18T12:21:49.304Z,12.70
2018-04-18T12:22:49.365Z,12.90
2018-04-18T12:23:49.356Z,10.70
2018-04-18T12:24:49.362Z,15.40
2018-04-18T12:25:49.404Z,14.00
2018-04-18T12:26:49.522Z,13.80
2018-04-18T12:27:49.400Z,13.50
2018-04-18T12:28:49.419Z,12.50
2018-04-18T12:29:49.429Z,12.90
2018-04-18T12:30:49.452Z,12.60
2018-04-18T12:31:49.465Z,12.10
2018-04-18T12:32:49.513Z,12.50
2018-04-18T12:33:49.544Z,12.40
2018-04-18T12:34:49.521Z,13.40
2018-04-18T12:35:49.527Z,13.50
2018-04-18T12:36:49.542Z,11.20
2018-04-18T12:37:49.623Z,12.10
2018-04-18T12:38:49.591Z,14.30
2018-04-18T12:39:49.593Z,11.90
2018-04-18T12:40:49.602Z,13.00
2018-04-18T12:41:49.609Z,12.70
2018-04-18T12:42:49.638Z,12.60
2018-04-18T12:43:49.705Z,14.40
2018-04-18T12:44:49.655Z,12.20
2018-04-18T12:45:49.711Z,12.50
2018-04-18T12:46:49.749Z,11.70
2018-04-18T12:47:49.696Z,11.80
2018-04-18T12:48:49.722Z,11.00
2018-04-18T12:49:49.743Z,12.10
2018-04-18T12:50:49.745Z,11.50
2018-04-18T12:51:49.799Z,11.50
2018-04-18T12:52:49.786Z,12.60